createdAt,value
2023-04-12T00:02:08.527Z,99292.53
2023-04-12T00:04:36.281Z,99289.38
2023-04-12T00:07:03.826Z,99295.62
2023-04-12T00:09:32.448Z,99296.66
2023-04-12T00:12:00.035Z,99295.81
2023-04-12T00:14:27.391Z,99283.59
2023-04-12T00:16:55.142Z,99285.19
2023-04-12T00:19:25.834Z,99284.41
2023-04-12T00:21:53.165Z,99288.09
2023-04-12T00:24:20.535Z,99303.84
2023-04-12T00:26:48.181Z,99297.59
2023-04-12T00:29:16.170Z,99296.69
2023-04-12T00:31:43.590Z,99307.47
2023-04-12T00:34:11.416Z,99298.63
2023-04-12T00:36:38.743Z,99299.81
2023-04-12T00:39:06.303Z,99290.81
2023-04-12T00:41:36.210Z,99279.00
2023-04-12T00:44:04.756Z,99277.59
2023-04-12T00:46:32.678Z,99273.28
2023-04-12T00:49:00.601Z,99270.84
2023-04-12T00:51:27.976Z,99278.09
2023-04-12T00:53:58.128Z,99285.28
2023-04-12T00:56:27.873Z,99278.44
2023-04-12T00:58:56.741Z,99282.00
2023-04-12T01:01:24.273Z,99282.13
2023-04-12T01:03:52.449Z,99278.59
2023-04-12T01:06:29.801Z,99289.22
2023-04-12T01:09:20.649Z,99274.41
2023-04-12T01:12:16.169Z,99275.16
2023-04-12T01:14:46.901Z,99269.56
2023-04-12T01:17:20.912Z,99264.88
2023-04-12T01:19:54.082Z,99262.34
2023-04-12T01:22:32.783Z,99290.41
2023-04-12T01:25:24.009Z,99282.91
2023-04-12T01:27:54.391Z,99286.59
2023-04-12T01:30:22.134Z,99289.00
2023-04-12T01:32:52.612Z,99279.34
2023-04-12T01:35:21.438Z,99285.97
2023-04-12T01:37:49.101Z,99292.84
2023-04-12T01:40:18.157Z,99280.19
2023-04-12T01:42:46.179Z,99273.78
2023-04-12T01:45:14.188Z,99276.41
2023-04-12T01:47:42.706Z,99289.03
2023-04-12T01:50:22.723Z,99277.84
2023-04-12T01:52:54.149Z,99292.56
2023-04-12T01:55:22.142Z,99283.47
2023-04-12T01:57:49.783Z,99294.09
2023-04-12T02:00:17.735Z,99288.66
2023-04-12T02:02:45.457Z,99291.25
2023-04-12T02:05:12.910Z,99278.06
2023-04-12T02:07:41.001Z,99284.72
2023-04-12T02:10:14.017Z,99276.50
2023-04-12T02:12:42.076Z,99281.94
2023-04-12T02:15:09.700Z,99269.25
2023-04-12T02:17:37.769Z,99269.34
2023-04-12T02:20:09.650Z,99275.44
2023-04-12T02:22:37.088Z,99277.75
2023-04-12T02:25:06.446Z,99281.09
2023-04-12T02:27:33.795Z,99286.47
2023-04-12T02:30:02.064Z,99284.41
2023-04-12T02:32:32.884Z,99277.72
2023-04-12T02:35:02.877Z,99283.34
2023-04-12T02:37:30.920Z,99275.22
2023-04-12T02:39:59.053Z,99272.41
2023-04-12T02:42:26.606Z,99279.34
2023-04-12T02:44:54.231Z,99277.56
2023-04-12T02:47:21.815Z,99279.50
2023-04-12T02:49:49.417Z,99277.31
2023-04-12T02:52:17.795Z,99280.81
2023-04-12T02:54:46.226Z,99265.06
2023-04-12T02:57:16.130Z,99266.00
2023-04-12T02:59:44.027Z,99268.25
2023-04-12T03:02:23.202Z,99262.78
2023-04-12T03:04:51.558Z,99270.50
2023-04-12T03:07:21.649Z,99262.91
2023-04-12T03:09:49.793Z,99261.53
2023-04-12T03:12:17.714Z,99269.37
2023-04-12T03:14:46.209Z,99266.44
2023-04-12T03:17:14.213Z,99259.44
2023-04-12T03:19:42.302Z,99255.03
2023-04-12T03:22:09.990Z,99248.75
2023-04-12T03:24:37.695Z,99248.72
2023-04-12T03:27:06.982Z,99250.50
2023-04-12T03:29:34.609Z,99248.72
2023-04-12T03:32:02.753Z,99240.16
2023-04-12T03:34:32.480Z,99232.63
2023-04-12T03:37:01.480Z,99230.87
2023-04-12T03:39:32.613Z,99219.84
2023-04-12T03:42:00.307Z,99218.72
2023-04-12T03:44:28.069Z,99227.72
2023-04-12T03:46:55.954Z,99237.03
2023-04-12T03:49:24.332Z,99225.56
2023-04-12T03:51:53.235Z,99229.09
2023-04-12T03:54:20.713Z,99234.69
2023-04-12T03:56:49.661Z,99233.38
2023-04-12T03:59:17.868Z,99224.44
2023-04-12T04:01:46.188Z,99235.69
2023-04-12T04:04:14.311Z,99226.81
2023-04-12T04:06:41.994Z,99223.44
2023-04-12T04:09:09.664Z,99218.16
2023-04-12T04:11:37.799Z,99227.03
2023-04-12T04:14:05.465Z,99222.16
2023-04-12T04:16:33.191Z,99215.69
2023-04-12T04:19:01.071Z,99220.31
2023-04-12T04:21:30.560Z,99219.34
2023-04-12T04:24:02.360Z,99225.22
2023-04-12T04:26:33.468Z,99216.06
2023-04-12T04:29:04.987Z,99216.16
2023-04-12T04:31:34.659Z,99218.81
2023-04-12T04:34:05.262Z,99220.91
2023-04-12T04:36:36.941Z,99227.72
2023-04-12T04:39:05.248Z,99214.81
2023-04-12T04:41:39.555Z,99216.16
2023-04-12T04:44:10.600Z,99224.47
2023-04-12T04:46:38.762Z,99209.84
2023-04-12T04:49:06.341Z,99211.53
2023-04-12T04:51:33.974Z,99215.34
2023-04-12T04:54:02.296Z,99217.75
2023-04-12T04:56:29.916Z,99212.22
2023-04-12T04:58:57.574Z,99196.94
2023-04-12T05:01:28.606Z,99202.63
2023-04-12T05:03:57.097Z,99209.37
2023-04-12T05:06:27.335Z,99212.72
2023-04-12T05:08:55.188Z,99213.53
2023-04-12T05:11:23.148Z,99219.28
2023-04-12T05:13:51.127Z,99214.22
2023-04-12T05:16:18.652Z,99216.84
2023-04-12T05:18:46.132Z,99215.87
2023-04-12T05:21:13.762Z,99213.19
2023-04-12T05:23:46.291Z,99221.97
2023-04-12T05:26:14.005Z,99218.81
2023-04-12T05:28:42.060Z,99225.56
2023-04-12T05:31:09.925Z,99218.50
2023-04-12T05:33:38.350Z,99222.13
2023-04-12T05:36:06.098Z,99224.13
2023-04-12T05:38:33.553Z,99219.97
2023-04-12T05:41:05.003Z,99221.81
2023-04-12T05:43:33.517Z,99217.84
2023-04-12T05:46:01.221Z,99211.09
2023-04-12T05:48:28.871Z,99213.88
2023-04-12T05:50:56.468Z,99213.22
2023-04-12T05:53:24.128Z,99204.12
2023-04-12T05:55:51.846Z,99198.47
2023-04-12T05:58:19.335Z,99204.94
2023-04-12T06:00:47.282Z,99219.97
2023-04-12T06:03:15.142Z,99213.88
2023-04-12T06:05:42.669Z,99203.28
2023-04-12T06:08:10.347Z,99220.50
2023-04-12T06:10:38.072Z,99208.06
2023-04-12T06:13:05.587Z,99205.22
2023-04-12T06:18:56.098Z,99211.53
2023-04-12T06:21:39.454Z,99210.59
2023-04-12T06:24:31.706Z,99206.81
2023-04-12T06:26:59.858Z,99197.34
2023-04-12T06:29:27.756Z,99204.16
2023-04-12T06:31:55.416Z,99208.87
2023-04-12T06:34:23.114Z,99214.25
2023-04-12T06:36:51.157Z,99220.66
2023-04-12T06:39:18.531Z,99218.25
2023-04-12T06:41:50.823Z,99228.63
2023-04-12T06:44:20.642Z,99223.25
2023-04-12T06:46:48.312Z,99220.28
2023-04-12T06:49:15.949Z,99230.66
2023-04-12T06:51:46.443Z,99218.66
2023-04-12T06:54:14.318Z,99217.59
2023-04-12T06:56:41.783Z,99226.16
2023-04-12T06:59:09.396Z,99222.03
2023-04-12T07:01:37.020Z,99227.03
2023-04-12T07:04:04.544Z,99213.06
2023-04-12T07:06:32.846Z,99222.44
2023-04-12T07:09:00.633Z,99216.22
2023-04-12T07:11:28.686Z,99239.59
2023-04-12T07:13:56.226Z,99222.25
2023-04-12T07:16:23.983Z,99217.19
2023-04-12T07:18:51.436Z,99219.69
2023-04-12T07:21:18.829Z,99210.25
2023-04-12T07:23:47.596Z,99213.59
2023-04-12T07:26:14.998Z,99199.59
2023-04-12T07:28:42.443Z,99212.59
2023-04-12T07:31:10.098Z,99195.09
2023-04-12T07:33:38.844Z,99193.00
2023-04-12T07:36:08.348Z,99184.25
2023-04-12T07:38:36.159Z,99191.25
2023-04-12T07:41:03.630Z,99180.41
2023-04-12T07:43:31.133Z,99197.22
2023-04-12T07:45:59.145Z,99196.69
2023-04-12T07:48:26.690Z,99189.41
2023-04-12T07:50:54.144Z,99188.28
2023-04-12T07:53:26.203Z,99173.62
2023-04-12T07:55:54.618Z,99173.25
2023-04-12T07:58:22.953Z,99179.56
2023-04-12T08:00:50.562Z,99175.56
2023-04-12T08:03:18.519Z,99171.16
2023-04-12T08:05:47.243Z,99168.72
2023-04-12T08:08:15.492Z,99171.41
2023-04-12T08:10:43.220Z,99179.34
2023-04-12T08:13:10.625Z,99184.13
2023-04-12T08:15:38.006Z,99179.28
2023-04-12T08:18:05.838Z,99182.78
2023-04-12T08:20:33.330Z,99193.56
2023-04-12T08:23:01.393Z,99187.66
2023-04-12T08:25:29.029Z,99192.31
2023-04-12T08:27:56.432Z,99176.16
2023-04-12T08:30:26.879Z,99185.56
2023-04-12T08:32:54.742Z,99193.41
2023-04-12T08:35:24.998Z,99205.56
2023-04-12T08:37:52.357Z,99180.94
2023-04-12T08:40:21.843Z,99185.28
2023-04-12T08:42:49.542Z,99192.63
2023-04-12T08:45:17.302Z,99175.59
2023-04-12T08:47:45.058Z,99181.84
2023-04-12T08:50:13.807Z,99163.28
2023-04-12T08:52:42.707Z,99168.91
2023-04-12T08:55:11.171Z,99164.97
2023-04-12T08:57:41.118Z,99159.59
2023-04-12T09:00:09.495Z,99154.25
2023-04-12T09:02:38.045Z,99180.25
2023-04-12T09:05:06.761Z,99158.31
2023-04-12T09:07:34.709Z,99165.38
2023-04-12T09:10:02.442Z,99158.06
2023-04-12T09:12:29.851Z,99155.31
2023-04-12T09:15:08.479Z,99139.53
2023-04-12T09:17:39.130Z,99135.69
2023-04-12T09:20:23.789Z,99125.47
2023-04-12T09:22:52.860Z,99132.44
2023-04-12T09:25:20.598Z,99122.94
2023-04-12T09:27:51.981Z,99117.63
2023-04-12T09:30:20.284Z,99123.50
2023-04-12T09:32:50.773Z,99112.88
2023-04-12T09:35:18.779Z,99125.75
2023-04-12T09:37:46.558Z,99127.78
2023-04-12T09:40:14.189Z,99099.81
2023-04-12T09:42:53.848Z,99091.72
2023-04-12T09:45:22.846Z,99103.00
2023-04-12T09:47:50.409Z,99090.75
2023-04-12T09:50:22.878Z,99085.38
2023-04-12T09:52:50.753Z,99093.91
2023-04-12T09:55:18.314Z,99091.50
2023-04-12T09:57:46.370Z,99095.31
2023-04-12T10:00:17.705Z,99090.75
2023-04-12T10:02:51.964Z,99077.53
2023-04-12T10:05:21.734Z,99078.91
2023-04-12T10:07:49.892Z,99069.22
2023-04-12T10:10:18.297Z,99079.44
2023-04-12T10:12:47.034Z,99088.03
2023-04-12T10:15:18.230Z,99061.88
2023-04-12T10:17:50.835Z,99063.91
2023-04-12T10:20:19.598Z,99073.88
2023-04-12T10:22:48.099Z,99071.22
2023-04-12T10:25:22.722Z,99073.88
2023-04-12T10:27:50.595Z,99055.69
2023-04-12T10:30:22.399Z,99066.22
2023-04-12T10:33:02.251Z,99077.00
2023-04-12T10:35:30.498Z,99105.38
2023-04-12T10:38:01.292Z,99095.94
2023-04-12T10:40:29.487Z,99086.31
2023-04-12T10:43:24.760Z,99087.84
2023-04-12T10:45:52.461Z,99100.44
2023-04-12T10:48:36.681Z,99076.72
2023-04-12T10:51:43.446Z,99081.31
2023-04-12T10:54:10.849Z,99081.41
2023-04-12T10:56:39.754Z,99082.25
2023-04-12T10:59:08.547Z,99077.88
2023-04-12T11:01:39.256Z,99077.03
2023-04-12T11:04:13.839Z,99074.94
2023-04-12T11:06:42.400Z,99076.28
2023-04-12T11:09:22.267Z,99078.94
2023-04-12T11:11:49.998Z,99091.88
2023-04-12T11:14:17.756Z,99087.09
2023-04-12T11:17:06.847Z,99068.66
2023-04-12T11:19:34.789Z,99062.25
2023-04-12T11:22:22.351Z,99063.72
2023-04-12T11:24:52.243Z,99056.31
2023-04-12T11:27:20.783Z,99042.03
2023-04-12T11:29:52.771Z,99050.38
2023-04-12T11:32:21.315Z,99055.59
2023-04-12T11:34:48.817Z,99063.94
2023-04-12T11:37:18.564Z,99054.41
2023-04-12T11:39:46.399Z,99052.94
2023-04-12T11:42:18.267Z,99045.75
2023-04-12T11:47:21.400Z,99072.75
2023-04-12T11:49:52.790Z,99053.56
2023-04-12T11:52:20.563Z,99037.81
2023-04-12T11:54:49.474Z,99025.81
2023-04-12T11:57:20.344Z,99050.91
2023-04-12T11:59:48.696Z,99042.03
2023-04-12T12:02:23.241Z,99040.31
2023-04-12T12:04:52.466Z,99033.69
2023-04-12T12:07:20.167Z,99037.19
2023-04-12T12:09:48.129Z,99033.34
2023-04-12T12:12:16.179Z,99025.44
2023-04-12T12:14:44.419Z,99036.78
2023-04-12T12:17:13.458Z,99015.97
2023-04-12T12:19:43.461Z,99012.16
2023-04-12T12:22:17.466Z,99024.81
2023-04-12T12:25:01.202Z,99018.37
2023-04-12T12:27:37.396Z,99008.75
2023-04-12T12:30:07.417Z,99006.53
2023-04-12T12:32:35.525Z,99006.41
2023-04-12T12:35:03.547Z,98995.13
2023-04-12T12:37:31.352Z,98997.63
2023-04-12T12:40:11.711Z,98995.09
2023-04-12T12:42:46.359Z,98988.91
2023-04-12T12:45:14.085Z,98989.97
2023-04-12T12:47:54.803Z,98977.84
2023-04-12T12:50:26.601Z,98975.59
2023-04-12T12:52:54.669Z,98979.31
2023-04-12T12:55:22.444Z,98975.53
2023-04-12T12:58:06.563Z,98978.56
2023-04-12T13:00:36.574Z,98976.12
2023-04-12T13:03:04.459Z,98962.75
2023-04-12T13:05:32.271Z,98967.56
2023-04-12T13:07:59.898Z,98962.72
2023-04-12T13:10:27.517Z,98976.84
2023-04-12T13:12:54.870Z,98971.63
2023-04-12T13:15:24.126Z,98967.38
2023-04-12T13:17:52.605Z,98957.59
2023-04-12T13:20:20.281Z,98949.56
2023-04-12T13:22:47.935Z,98947.59
2023-04-12T13:25:15.545Z,98951.16
2023-04-12T13:27:42.896Z,98942.56
2023-04-12T13:30:11.077Z,98939.06
2023-04-12T13:32:38.482Z,98942.28
2023-04-12T13:35:06.545Z,98940.44
2023-04-12T13:37:34.315Z,98938.62
2023-04-12T13:40:01.668Z,98923.03
2023-04-12T13:42:29.063Z,98922.34
2023-04-12T13:44:56.994Z,98924.88
2023-04-12T13:47:24.379Z,98930.03
2023-04-12T13:49:51.784Z,98932.81
2023-04-12T13:52:19.390Z,98932.22
2023-04-12T13:54:46.738Z,98924.28
2023-04-12T13:57:14.078Z,98922.34
2023-04-12T13:59:41.790Z,98916.38
2023-04-12T14:02:09.268Z,98912.25
2023-04-12T14:04:37.107Z,98907.91
2023-04-12T14:07:04.427Z,98918.13
2023-04-12T14:09:32.097Z,98914.97
2023-04-12T14:12:01.477Z,98914.44
2023-04-12T14:14:28.904Z,98913.53
2023-04-12T14:17:01.846Z,98918.16
2023-04-12T14:19:29.681Z,98910.34
2023-04-12T14:21:57.010Z,98911.28
2023-04-12T14:24:24.404Z,98916.03
2023-04-12T14:26:52.003Z,98906.88
2023-04-12T14:29:19.339Z,98903.53
2023-04-12T14:31:46.867Z,98901.78
2023-04-12T14:34:14.531Z,98905.81
2023-04-12T14:36:41.912Z,98907.84
2023-04-12T14:39:11.655Z,98904.94
2023-04-12T14:41:40.665Z,98910.69
2023-04-12T14:44:08.015Z,98903.69
2023-04-12T14:46:35.683Z,98900.06
2023-04-12T14:49:03.371Z,98898.53
2023-04-12T14:51:32.079Z,98906.50
2023-04-12T14:53:59.680Z,98906.56
2023-04-12T14:56:30.433Z,98907.28
2023-04-12T14:58:58.788Z,98900.12
2023-04-12T15:01:27.131Z,98899.16
2023-04-12T15:03:54.937Z,98902.41
2023-04-12T15:06:22.956Z,98907.84
2023-04-12T15:08:54.981Z,98911.34
2023-04-12T15:11:26.596Z,98910.87
2023-04-12T15:13:55.094Z,98917.28
2023-04-12T15:16:23.388Z,98906.22
2023-04-12T15:18:51.316Z,98911.75
2023-04-12T15:21:18.770Z,98913.84
2023-04-12T15:23:47.246Z,98904.06
2023-04-12T15:26:14.704Z,98904.50
2023-04-12T15:28:42.302Z,98897.13
2023-04-12T15:31:11.813Z,98910.44
2023-04-12T15:33:39.297Z,98917.09
2023-04-12T15:36:06.975Z,98912.25
2023-04-12T15:38:40.809Z,98909.84
2023-04-12T15:41:08.183Z,98909.81
2023-04-12T15:43:35.925Z,98917.22
2023-04-12T15:46:03.488Z,98918.25
2023-04-12T15:48:30.979Z,98920.16
2023-04-12T15:50:59.051Z,98921.34
2023-04-12T15:53:27.292Z,98916.47
2023-04-12T15:55:55.122Z,98908.25
2023-04-12T15:58:23.461Z,98900.69
2023-04-12T16:00:52.897Z,98912.59
2023-04-12T16:03:23.314Z,98900.31
2023-04-12T16:05:54.361Z,98900.31
2023-04-12T16:08:22.658Z,98915.16
2023-04-12T16:10:50.606Z,98912.19
2023-04-12T16:13:18.410Z,98905.06
2023-04-12T16:15:46.873Z,98895.22
2023-04-12T16:18:14.348Z,98896.22
2023-04-12T16:20:41.835Z,98902.38
2023-04-12T16:23:09.510Z,98896.56
2023-04-12T16:25:36.878Z,98885.50
2023-04-12T16:28:05.188Z,98886.03
2023-04-12T16:30:33.836Z,98878.19
2023-04-12T16:33:01.350Z,98883.59
2023-04-12T16:35:28.861Z,98888.59
2023-04-12T16:37:56.502Z,98891.69
2023-04-12T16:40:24.554Z,98881.81
2023-04-12T16:42:52.029Z,98878.75
2023-04-12T16:45:20.860Z,98875.47
2023-04-12T16:47:48.285Z,98878.19
2023-04-12T16:50:15.678Z,98872.13
2023-04-12T16:52:43.298Z,98870.19
2023-04-12T16:55:14.164Z,98877.84
2023-04-12T16:57:42.016Z,98875.84
2023-04-12T17:00:28.963Z,98873.09
2023-04-12T17:02:56.561Z,98881.06
2023-04-12T17:05:24.789Z,98879.22
2023-04-12T17:07:53.998Z,98869.78
2023-04-12T17:10:22.466Z,98875.94
2023-04-12T17:12:51.911Z,98877.06
2023-04-12T17:15:20.991Z,98877.88
2023-04-12T17:17:49.948Z,98871.19
2023-04-12T17:20:19.209Z,98873.31
2023-04-12T17:22:47.014Z,98880.50
2023-04-12T17:25:14.369Z,98879.47
2023-04-12T17:27:42.465Z,98886.47
2023-04-12T17:30:12.425Z,98881.69
2023-04-12T17:32:40.356Z,98879.44
2023-04-12T17:35:08.405Z,98878.94
2023-04-12T17:37:35.934Z,98884.12
2023-04-12T17:40:06.168Z,98887.16
2023-04-12T17:42:33.820Z,98877.06
2023-04-12T17:45:01.164Z,98889.44
2023-04-12T17:47:28.553Z,98885.00
2023-04-12T17:49:56.451Z,98884.59
2023-04-12T17:52:23.823Z,98884.59
2023-04-12T17:54:51.776Z,98887.50
2023-04-12T17:57:19.412Z,98889.22
2023-04-12T17:59:47.199Z,98881.47
2023-04-12T18:02:16.954Z,98888.87
2023-04-12T18:04:45.213Z,98892.66
2023-04-12T18:07:12.892Z,98884.56
2023-04-12T18:09:44.711Z,98886.09
2023-04-12T18:12:13.060Z,98890.13
2023-04-12T18:14:43.837Z,98891.34
2023-04-12T18:17:11.190Z,98891.88
2023-04-12T18:19:38.831Z,98893.28
2023-04-12T18:22:06.229Z,98885.44
2023-04-12T18:24:33.929Z,98889.97
2023-04-12T18:27:04.277Z,98888.31
2023-04-12T18:29:32.782Z,98885.03
2023-04-12T18:32:00.289Z,98888.72
2023-04-12T18:34:28.181Z,98888.87
2023-04-12T18:36:55.738Z,98891.19
2023-04-12T18:39:23.078Z,98892.19
2023-04-12T18:41:51.295Z,98898.97
2023-04-12T18:44:19.865Z,98901.84
2023-04-12T18:46:47.288Z,98898.59
2023-04-12T18:49:15.405Z,98903.97
2023-04-12T18:51:42.903Z,98908.66
2023-04-12T18:54:13.722Z,98909.28
2023-04-12T18:56:42.397Z,98908.91
2023-04-12T18:59:15.878Z,98915.25
2023-04-12T19:01:44.393Z,98916.06
2023-04-12T19:04:11.898Z,98919.53
2023-04-12T19:06:39.421Z,98915.00
2023-04-12T19:09:08.262Z,98925.28
2023-04-12T19:11:37.108Z,98917.06
2023-04-12T19:14:05.170Z,98916.25
2023-04-12T19:16:32.838Z,98919.53
2023-04-12T19:19:00.435Z,98915.03
2023-04-12T19:21:31.601Z,98921.19
2023-04-12T19:23:59.661Z,98913.59
2023-04-12T19:26:28.189Z,98918.53
2023-04-12T19:28:58.245Z,98928.56
2023-04-12T19:31:26.207Z,98925.03
2023-04-12T19:33:57.261Z,98925.87
2023-04-12T19:36:25.002Z,98927.72
2023-04-12T19:38:52.620Z,98924.41
2023-04-12T19:41:20.793Z,98926.81
2023-04-12T19:43:48.258Z,98921.09
2023-04-12T19:46:17.351Z,98925.00
2023-04-12T19:48:45.440Z,98918.19
2023-04-12T19:51:13.334Z,98918.56
2023-04-12T19:53:41.923Z,98914.06
2023-04-12T19:56:09.748Z,98913.31
2023-04-12T19:58:37.314Z,98910.16
2023-04-12T20:01:05.129Z,98906.56
2023-04-12T20:03:32.914Z,98903.69
2023-04-12T20:06:03.921Z,98904.75
2023-04-12T20:08:32.180Z,98899.41
2023-04-12T20:11:01.013Z,98895.56
2023-04-12T20:13:30.667Z,98897.19
2023-04-12T20:16:00.694Z,98905.53
2023-04-12T20:18:29.582Z,98903.09
2023-04-12T20:20:59.907Z,98892.44
2023-04-12T20:23:28.091Z,98892.44
2023-04-12T20:25:55.611Z,98881.31
2023-04-12T20:28:23.440Z,98891.88
2023-04-12T20:30:51.171Z,98885.38
2023-04-12T20:33:19.897Z,98887.81
2023-04-12T20:35:47.312Z,98895.09
2023-04-12T20:38:15.167Z,98896.44
2023-04-12T20:40:42.509Z,98900.09
2023-04-12T20:43:10.507Z,98895.97
2023-04-12T20:45:38.214Z,98895.09
2023-04-12T20:48:05.778Z,98887.94
2023-04-12T20:50:33.193Z,98873.81
2023-04-12T20:53:00.781Z,98881.47
2023-04-12T20:55:32.523Z,98881.22
2023-04-12T20:58:00.775Z,98872.00
2023-04-12T21:00:29.592Z,98874.59
2023-04-12T21:02:58.285Z,98870.09
2023-04-12T21:05:27.280Z,98878.72
2023-04-12T21:07:54.917Z,98872.41
2023-04-12T21:10:22.304Z,98866.50
2023-04-12T21:12:50.080Z,98871.63
2023-04-12T21:15:21.963Z,98868.06
2023-04-12T21:17:52.275Z,98868.56
2023-04-12T21:20:19.997Z,98871.31
2023-04-12T21:22:48.132Z,98875.63
2023-04-12T21:25:16.990Z,98874.00
2023-04-12T21:27:45.704Z,98875.47
2023-04-12T21:30:13.643Z,98875.06
2023-04-12T21:32:41.956Z,98873.28
2023-04-12T21:35:11.054Z,98869.22
2023-04-12T21:37:39.158Z,98860.53
2023-04-12T21:40:09.246Z,98862.62
2023-04-12T21:42:37.070Z,98855.75
2023-04-12T21:45:05.332Z,98861.91
2023-04-12T21:47:32.801Z,98856.09
2023-04-12T21:50:00.690Z,98851.19
2023-04-12T21:52:28.055Z,98854.00
2023-04-12T21:54:55.782Z,98851.94
2023-04-12T21:57:23.413Z,98843.25
2023-04-12T21:59:51.008Z,98841.53
2023-04-12T22:02:18.461Z,98839.09
2023-04-12T22:04:46.713Z,98840.03
2023-04-12T22:07:16.842Z,98835.41
2023-04-12T22:09:45.009Z,98835.59
2023-04-12T22:12:12.865Z,98840.06
2023-04-12T22:14:46.412Z,98832.19
2023-04-12T22:17:14.736Z,98835.00
2023-04-12T22:19:42.308Z,98828.78
2023-04-12T22:22:09.794Z,98821.38
2023-04-12T22:24:38.663Z,98829.91
2023-04-12T22:27:06.930Z,98834.37
2023-04-12T22:29:34.374Z,98831.94
2023-04-12T22:32:02.406Z,98825.56
2023-04-12T22:34:29.792Z,98821.72
2023-04-12T22:36:59.969Z,98814.00
2023-04-12T22:39:27.681Z,98815.75
2023-04-12T22:41:57.353Z,98819.75
2023-04-12T22:44:25.416Z,98818.88
2023-04-12T22:46:54.584Z,98818.81
2023-04-12T22:49:27.241Z,98815.50
2023-04-12T22:51:55.298Z,98814.88
2023-04-12T22:54:23.594Z,98815.22
2023-04-12T22:56:51.599Z,98828.63
2023-04-12T22:59:20.004Z,98825.16
2023-04-12T23:01:47.525Z,98819.78
2023-04-12T23:04:15.766Z,98826.22
2023-04-12T23:06:43.702Z,98821.66
2023-04-12T23:09:11.748Z,98822.78
2023-04-12T23:11:39.966Z,98818.84
2023-04-12T23:14:08.028Z,98817.13
2023-04-12T23:16:35.658Z,98815.25
2023-04-12T23:19:06.366Z,98808.34
2023-04-12T23:21:36.035Z,98806.09
2023-04-12T23:24:04.380Z,98809.59
2023-04-12T23:26:34.520Z,98807.94
2023-04-12T23:29:03.894Z,98801.84
2023-04-12T23:31:32.268Z,98800.25
2023-04-12T23:34:03.085Z,98796.13
2023-04-12T23:36:30.736Z,98788.53
2023-04-12T23:39:04.527Z,98784.69
2023-04-12T23:41:32.324Z,98776.25
2023-04-12T23:44:00.280Z,98784.69
2023-04-12T23:46:28.133Z,98785.06
2023-04-12T23:48:56.132Z,98789.13
2023-04-12T23:51:23.516Z,98779.53
2023-04-12T23:53:51.052Z,98774.41
2023-04-12T23:56:18.751Z,98770.31
2023-04-12T23:58:47.111Z,98771.75
